Time;durP1;ratioP1;P1;durP2;ratioP2;P2;SDS_P1;SDS_P2;PMS_P1;PMS_P2;Temp;Humidity;BMP_temperature;BMP_pressure;BME280_temperature;BME280_humidity;BME280_pressure;Samples;Min_cycle;Max_cycle;Signal;HPM_P1;HPM_P2
2021/09/22 00:02:13;;;;;;;3.38;2.60;;;;;;;14.70;87.75;100842.81;4900582;29;20044;-86
2021/09/22 00:04:40;;;;;;;4.97;2.75;;;;;;;14.63;88.45;100843.19;4905431;29;20519;-85
2021/09/22 00:07:07;;;;;;;5.55;2.90;;;;;;;14.57;88.90;100840.91;4888660;29;20104;-85
2021/09/22 00:09:34;;;;;;;8.02;2.50;;;;;;;14.59;88.83;100838.19;4900233;29;20108;-85
2021/09/22 00:12:01;;;;;;;7.55;2.97;;;;;;;14.59;88.92;100839.03;4904378;29;20050;-83
2021/09/22 00:14:28;;;;;;;6.47;3.03;;;;;;;14.58;89.45;100839.97;4903259;29;20394;-80
2021/09/22 00:16:58;;;;;;;4.15;2.90;;;;;;;14.65;89.03;100833.47;4908004;29;20044;-79
2021/09/22 00:19:25;;;;;;;9.60;2.90;;;;;;;14.67;88.87;100834.22;4901934;29;20076;-80
2021/09/22 00:21:52;;;;;;;2.95;2.63;;;;;;;14.67;88.62;100841.25;4906886;29;20100;-80
2021/09/22 00:24:18;;;;;;;4.32;2.60;;;;;;;14.65;88.57;100840.50;4904456;29;20048;-80
2021/09/22 00:26:45;;;;;;;6.93;4.15;;;;;;;14.68;88.06;100835.88;4905963;29;20070;-80
2021/09/22 00:29:12;;;;;;;4.78;2.75;;;;;;;14.72;87.24;100831.31;4902336;29;20100;-80
2021/09/22 00:31:40;;;;;;;6.25;3.20;;;;;;;14.74;87.18;100823.34;4904865;29;20045;-80
2021/09/22 00:34:07;;;;;;;3.17;2.60;;;;;;;14.75;86.97;100820.63;4901004;29;20488;-80
2021/09/22 00:36:34;;;;;;;4.68;3.42;;;;;;;14.77;87.64;100817.94;4900076;29;20036;-81
2021/09/22 00:39:03;;;;;;;5.47;2.78;;;;;;;14.71;87.13;100807.81;4903937;29;20491;-80
2021/09/22 00:41:30;;;;;;;2.90;2.67;;;;;;;14.63;87.66;100806.44;4903127;29;20092;-80
2021/09/22 00:43:56;;;;;;;6.63;3.38;;;;;;;14.61;87.87;100792.59;4898709;29;20044;-81
2021/09/22 00:46:23;;;;;;;6.15;2.95;;;;;;;14.63;87.58;100795.94;4896498;29;20049;-81
2021/09/22 00:48:50;;;;;;;3.65;2.60;;;;;;;14.73;87.47;100790.16;4897078;29;20045;-81
2021/09/22 00:51:17;;;;;;;4.43;3.10;;;;;;;14.85;86.60;100789.44;4897268;29;20077;-80
2021/09/22 00:53:44;;;;;;;5.63;2.97;;;;;;;14.88;86.06;100784.88;4898779;29;20045;-82
2021/09/22 00:56:15;;;;;;;3.65;2.83;;;;;;;14.86;86.37;100794.63;4897184;29;20045;-81
2021/09/22 00:58:42;;;;;;;3.85;3.08;;;;;;;14.85;86.34;100797.31;4897113;29;20052;-80
2021/09/22 01:01:09;;;;;;;3.95;3.33;;;;;;;14.85;86.48;100794.69;4899338;29;20045;-79
2021/09/22 01:03:37;;;;;;;3.70;3.33;;;;;;;14.91;85.84;100796.94;4898770;29;20044;-80
2021/09/22 01:06:04;;;;;;;3.85;2.92;;;;;;;14.92;85.81;100798.66;4897551;29;20131;-79
2021/09/22 01:08:32;;;;;;;4.63;3.53;;;;;;;14.91;85.77;100796.94;4898652;29;20056;-80
2021/09/22 01:10:59;;;;;;;5.40;3.15;;;;;;;14.90;85.58;100797.91;4898784;29;20044;-79
2021/09/22 01:13:26;;;;;;;4.95;3.28;;;;;;;14.87;85.48;100792.84;4897014;29;20055;-80
2021/09/22 01:15:53;;;;;;;4.75;3.17;;;;;;;14.87;85.48;100792.84;4898809;29;20487;-79
2021/09/22 01:18:23;;;;;;;5.10;3.33;;;;;;;14.91;85.15;100791.69;4898370;29;20108;-79
2021/09/22 01:20:58;;;;;;;3.90;3.17;;;;;;;14.94;84.93;100784.50;4897635;29;20049;-79
2021/09/22 01:23:28;;;;;;;3.22;2.92;;;;;;;14.97;84.69;100790.50;4897280;29;20055;-79
2021/09/22 01:26:00;;;;;;;3.83;3.20;;;;;;;14.90;85.02;100785.59;4897053;29;20068;-80
2021/09/22 01:28:29;;;;;;;4.95;3.33;;;;;;;14.87;85.41;100779.72;4897080;29;20048;-80
2021/09/22 01:31:02;;;;;;;3.90;3.33;;;;;;;14.94;85.00;100773.16;4897459;29;20041;-81
2021/09/22 01:33:32;;;;;;;4.13;3.08;;;;;;;14.96;84.69;100771.28;4898396;29;20059;-81
2021/09/22 01:36:14;;;;;;;5.93;3.72;;;;;;;14.96;84.56;100771.28;4896978;29;20054;-79
2021/09/22 01:38:45;;;;;;;3.65;2.78;;;;;;;15.01;84.08;100769.22;4897110;29;20045;-80
2021/09/22 01:41:15;;;;;;;5.13;2.90;;;;;;;14.97;84.20;100773.00;4896587;29;20045;-81
2021/09/22 01:44:04;;;;;;;5.05;3.03;;;;;;;15.00;83.70;100777.19;4896896;29;20059;-81
2021/09/22 01:46:55;;;;;;;3.38;2.80;;;;;;;15.00;83.48;100775.41;4896610;29;20044;-82
2021/09/22 01:49:37;;;;;;;3.90;2.67;;;;;;;15.10;82.68;100771.28;4897201;29;20053;-82
2021/09/22 01:52:09;;;;;;;4.40;3.00;;;;;;;15.05;82.79;100765.47;4896579;29;20558;-81
2021/09/22 01:54:49;;;;;;;3.20;2.90;;;;;;;15.06;82.72;100766.31;4897340;29;20072;-81
2021/09/22 01:57:17;;;;;;;5.55;2.72;;;;;;;15.02;82.96;100755.19;4896658;29;20044;-81
2021/09/22 01:59:45;;;;;;;3.25;2.80;;;;;;;15.01;82.94;100761.34;4897580;29;20108;-81
2021/09/22 02:02:37;;;;;;;5.05;2.90;;;;;;;14.98;83.28;100769.41;4898074;29;20084;-81
2021/09/22 02:05:17;;;;;;;9.57;5.45;;;;;;;15.06;82.88;100769.78;4896979;29;20056;-82
2021/09/22 02:07:54;;;;;;;4.60;3.67;;;;;;;14.90;84.09;100769.84;4896769;29;20048;-81
2021/09/22 02:10:24;;;;;;;2.92;2.65;;;;;;;14.80;84.49;100763.47;4897463;29;20048;-81
2021/09/22 02:12:52;;;;;;;3.85;3.35;;;;;;;14.83;84.65;100757.22;4897415;29;20048;-81
2021/09/22 02:15:19;;;;;;;3.58;3.08;;;;;;;14.92;84.04;100759.28;4892520;29;20104;-81
2021/09/22 02:18:24;;;;;;;3.40;3.03;;;;;;;14.87;84.44;100748.22;4905114;29;20044;-81
2021/09/22 02:20:53;;;;;;;5.05;3.63;;;;;;;14.70;85.34;100754.47;4887127;29;20049;-81
2021/09/22 02:23:24;;;;;;;6.93;3.00;;;;;;;14.67;85.61;100752.88;4912864;29;20044;-80
2021/09/22 02:25:54;;;;;;;2.83;2.60;;;;;;;14.78;84.39;100751.38;4894870;29;20132;-79
2021/09/22 02:28:21;;;;;;;3.65;3.25;;;;;;;14.60;85.99;100754.16;4899691;29;20053;-80
2021/09/22 02:30:48;;;;;;;3.13;2.90;;;;;;;14.57;86.44;100750.88;4900430;29;20041;-80
2021/09/22 02:33:15;;;;;;;4.05;2.92;;;;;;;14.54;86.83;100757.16;4909297;29;20403;-80
2021/09/22 02:35:42;;;;;;;6.22;3.40;;;;;;;14.46;87.32;100759.34;4899427;29;20045;-80
2021/09/22 02:38:14;;;;;;;4.32;3.17;;;;;;;14.36;88.14;100752.94;4900007;29;20130;-81
2021/09/22 02:40:45;;;;;;;8.63;3.88;;;;;;;14.27;89.16;100745.56;4899730;29;20060;-81
2021/09/22 02:43:12;;;;;;;6.97;3.58;;;;;;;14.25;89.54;100748.28;4903712;29;20051;-81
2021/09/22 02:45:39;;;;;;;5.63;3.72;;;;;;;14.14;90.31;100746.28;4904228;29;20072;-80
2021/09/22 02:48:07;;;;;;;3.50;3.20;;;;;;;13.98;90.97;100740.22;4902383;29;20051;-80
2021/09/22 02:50:36;;;;;;;4.88;3.33;;;;;;;13.93;92.21;100739.63;4906290;29;20097;-80
2021/09/22 02:53:03;;;;;;;5.45;3.08;;;;;;;13.90;91.91;100734.56;4900687;29;20128;-80
2021/09/22 02:55:30;;;;;;;4.93;3.40;;;;;;;13.89;91.96;100735.47;4899504;29;20095;-83
2021/09/22 02:57:57;;;;;;;3.63;3.05;;;;;;;13.85;92.25;100739.22;4900153;29;20092;-83
2021/09/22 03:00:24;;;;;;;3.03;2.83;;;;;;;13.77;92.66;100731.78;4911561;29;20044;-82
2021/09/22 03:02:54;;;;;;;4.03;3.08;;;;;;;13.77;92.42;100731.78;4918310;29;20505;-83
2021/09/22 03:05:22;;;;;;;3.88;3.08;;;;;;;13.67;93.47;100721.91;4918630;29;20094;-82
2021/09/22 03:07:49;;;;;;;7.88;4.88;;;;;;;13.51;94.60;100720.13;4919636;29;20044;-83
2021/09/22 03:10:19;;;;;;;4.93;4.05;;;;;;;13.50;95.27;100728.91;4919583;29;20040;-82
2021/09/22 03:12:46;;;;;;;4.10;3.70;;;;;;;13.43;94.85;100719.69;4918423;29;20048;-83
2021/09/22 03:15:14;;;;;;;3.53;2.97;;;;;;;13.41;95.22;100713.69;4918668;29;20051;-83
2021/09/22 03:17:41;;;;;;;4.28;3.70;;;;;;;13.37;95.56;100717.41;4917620;29;20067;-83
2021/09/22 03:20:09;;;;;;;7.25;3.38;;;;;;;13.27;96.50;100713.59;4882830;29;20045;-82
2021/09/22 03:22:36;;;;;;;4.78;3.03;;;;;;;13.22;96.91;100713.00;4891321;29;20068;-83
2021/09/22 03:25:23;;;;;;;3.13;2.75;;;;;;;13.12;96.70;100710.00;4900411;29;20460;-83
2021/09/22 03:27:49;;;;;;;3.28;2.97;;;;;;;13.16;96.55;100710.69;4900321;29;20044;-82
2021/09/22 03:30:18;;;;;;;4.55;2.90;;;;;;;13.05;97.09;100708.63;4899699;29;20052;-83
2021/09/22 03:32:51;;;;;;;2.95;2.65;;;;;;;12.91;97.77;100708.50;4899344;29;20096;-83
2021/09/22 03:35:18;;;;;;;4.18;3.15;;;;;;;12.94;97.93;100703.09;4899111;29;20044;-83
2021/09/22 03:37:45;;;;;;;2.88;2.58;;;;;;;12.94;97.37;100701.31;4899555;29;20052;-84
2021/09/22 03:40:12;;;;;;;3.47;3.17;;;;;;;12.87;97.81;100699.97;4899089;29;20058;-83
2021/09/22 03:42:39;;;;;;;3.28;2.97;;;;;;;12.78;98.31;100703.03;4900488;29;20040;-82
2021/09/22 03:45:10;;;;;;;4.38;2.85;;;;;;;12.86;98.15;100703.50;4898545;29;20048;-82
2021/09/22 03:47:38;;;;;;;5.53;3.45;;;;;;;12.97;98.18;100698.56;4898939;29;20452;-82
2021/09/22 03:50:06;;;;;;;9.50;4.45;;;;;;;12.93;98.66;100704.88;4909062;29;20103;-83
2021/09/22 03:52:53;;;;;;;7.20;3.42;;;;;;;12.94;98.62;100698.69;4900184;29;20587;-83
2021/09/22 03:55:20;;;;;;;7.82;3.47;;;;;;;12.81;99.02;100692.44;4898717;29;20570;-83
2021/09/22 03:57:47;;;;;;;3.70;3.40;;;;;;;12.71;99.78;100688.59;4900255;29;20079;-83
2021/09/22 04:00:14;;;;;;;4.63;3.50;;;;;;;12.76;99.44;100686.59;4899702;29;20503;-83
2021/09/22 04:02:41;;;;;;;5.93;3.10;;;;;;;12.75;99.07;100683.13;4898734;29;20091;-83
2021/09/22 04:05:08;;;;;;;6.30;3.20;;;;;;;12.63;99.10;100675.94;4898542;29;20052;-83
2021/09/22 04:07:37;;;;;;;3.00;2.70;;;;;;;12.66;99.97;100673.16;4897995;29;20161;-83
2021/09/22 04:10:04;;;;;;;3.53;3.08;;;;;;;12.69;99.48;100667.78;4898394;29;20079;-83
2021/09/22 04:12:32;;;;;;;4.78;2.97;;;;;;;12.64;98.89;100664.53;4898193;29;20053;-82
2021/09/22 04:15:00;;;;;;;3.17;2.90;;;;;;;12.61;99.52;100669.91;4898233;29;20048;-81
2021/09/22 04:17:27;;;;;;;7.13;3.20;;;;;;;12.63;99.08;100667.25;4898113;29;20072;-81
2021/09/22 04:19:55;;;;;;;3.42;3.13;;;;;;;12.63;98.83;100670.72;4898492;29;20056;-81
2021/09/22 04:22:22;;;;;;;3.50;3.10;;;;;;;12.62;98.55;100665.53;4898064;29;20522;-81
2021/09/22 04:24:49;;;;;;;7.50;2.85;;;;;;;12.65;98.57;100668.00;4909471;29;20067;-82
2021/09/22 04:27:18;;;;;;;3.55;3.10;;;;;;;12.66;98.11;100675.75;4917335;29;20048;-81
2021/09/22 04:29:55;;;;;;;6.15;3.40;;;;;;;12.57;99.09;100676.25;4882729;29;20435;-81
2021/09/22 04:32:41;;;;;;;3.75;2.95;;;;;;;12.53;99.07;100669.47;4899274;29;20528;-85
2021/09/22 04:35:26;;;;;;;4.22;3.17;;;;;;;12.56;99.14;100666.69;4900800;29;20132;-83
2021/09/22 04:38:13;;;;;;;3.15;2.80;;;;;;;12.57;99.10;100671.88;4900264;29;20071;-84
2021/09/22 04:40:59;;;;;;;5.13;3.45;;;;;;;12.63;98.76;100668.09;4902825;29;20059;-87
2021/09/22 04:43:44;;;;;;;4.13;2.78;;;;;;;12.67;98.55;100666.13;4919374;29;20059;-85
2021/09/22 04:46:29;;;;;;;5.95;3.30;;;;;;;12.64;98.38;100669.78;4903626;29;20052;-81
2021/09/22 04:49:16;;;;;;;3.78;2.75;;;;;;;12.59;98.66;100677.84;4898572;29;20050;-83
2021/09/22 04:52:02;;;;;;;7.63;3.35;;;;;;;12.63;98.45;100677.72;4895329;29;20052;-82
2021/09/22 04:54:47;;;;;;;2.65;2.42;;;;;;;12.57;98.40;100692.78;4917235;29;20071;-82
2021/09/22 04:57:33;;;;;;;6.63;3.10;;;;;;;12.52;98.84;100678.25;4921830;29;20043;-85
2021/09/22 05:00:18;;;;;;;4.00;3.30;;;;;;;12.63;98.29;100688.16;4916068;29;20072;-83
2021/09/22 05:03:04;;;;;;;5.97;3.17;;;;;;;12.64;98.35;100692.47;4910830;29;20092;-82
2021/09/22 05:05:50;;;;;;;4.85;3.25;;;;;;;12.64;98.48;100692.47;4886969;29;20056;-80
2021/09/22 05:08:49;;;;;;;4.15;3.75;;;;;;;12.71;98.58;100705.13;4893086;29;20049;-79
2021/09/22 05:11:36;;;;;;;9.93;5.93;;;;;;;12.63;100.00;100703.88;4895622;29;20159;-82
2021/09/22 05:14:21;;;;;;;13.10;9.80;;;;;;;12.61;100.00;100711.75;4895904;29;20052;-85
2021/09/22 05:17:07;;;;;;;13.55;7.85;;;;;;;12.70;100.00;100706.06;4898469;29;20061;-89
2021/09/22 05:19:52;;;;;;;11.90;9.48;;;;;;;12.78;100.00;100703.03;4902060;29;20115;-85
2021/09/22 05:22:38;;;;;;;12.57;9.88;;;;;;;12.89;100.00;100708.59;4905657;29;20410;-82
2021/09/22 05:25:23;;;;;;;10.85;9.20;;;;;;;12.97;99.31;100698.56;4906600;29;20071;-83
2021/09/22 05:28:09;;;;;;;11.73;8.57;;;;;;;13.11;97.18;100713.53;4903843;29;20047;-81
2021/09/22 05:30:54;;;;;;;10.40;7.88;;;;;;;13.17;95.99;100715.00;4895560;29;20124;-82
2021/09/22 05:33:39;;;;;;;8.55;5.95;;;;;;;13.28;94.30;100712.66;4896314;29;20109;-81
2021/09/22 05:36:25;;;;;;;7.00;5.18;;;;;;;13.21;93.86;100709.53;4899470;29;20145;-82
2021/09/22 05:39:10;;;;;;;7.38;4.38;;;;;;;13.49;91.30;100718.53;4897600;29;20059;-82
2021/09/22 05:41:55;;;;;;;5.78;3.70;;;;;;;13.55;90.11;100713.78;4897284;29;20056;-81
2021/09/22 05:44:41;;;;;;;4.03;3.67;;;;;;;13.56;90.11;100715.47;4899320;29;20494;-81
2021/09/22 05:47:27;;;;;;;4.78;4.15;;;;;;;13.63;90.11;100714.22;4906090;29;20055;-83
2021/09/22 05:50:13;;;;;;;6.68;4.60;;;;;;;13.86;88.47;100722.56;4907415;29;20566;-82
2021/09/22 05:52:58;;;;;;;7.90;5.55;;;;;;;13.89;88.73;100719.75;4898537;29;20056;-83
2021/09/22 05:55:43;;;;;;;9.30;6.90;;;;;;;14.06;88.33;100727.53;4903185;29;20065;-83
2021/09/22 05:58:28;;;;;;;11.52;6.93;;;;;;;14.07;88.69;100728.38;4899292;29;20071;-82
2021/09/22 06:01:14;;;;;;;7.07;5.30;;;;;;;14.06;88.69;100724.91;4906193;29;20061;-81
2021/09/22 06:03:59;;;;;;;9.35;5.60;;;;;;;14.15;87.93;100724.38;4898866;29;20411;-83
2021/09/22 06:06:50;;;;;;;6.10;4.00;;;;;;;14.22;87.54;100726.63;4886647;29;20063;-83
2021/09/22 06:09:17;;;;;;;6.40;4.55;;;;;;;14.31;87.43;100724.34;4897334;29;20506;-83
2021/09/22 06:12:00;;;;;;;5.72;4.45;;;;;;;14.53;86.45;100731.81;4876430;29;20122;-84
2021/09/22 06:14:26;;;;;;;15.93;8.40;;;;;;;14.65;86.93;100725.88;4885044;29;20052;-84
2021/09/22 06:16:53;;;;;;;15.00;9.50;;;;;;;14.79;87.08;100729.44;4903897;29;20052;-84
2021/09/22 06:19:25;;;;;;;18.08;12.27;;;;;;;14.83;88.14;100728.34;4896446;29;20048;-84
2021/09/22 06:21:53;;;;;;;23.27;14.90;;;;;;;14.93;88.26;100730.31;4902816;29;20077;-84
2021/09/22 06:24:38;;;;;;;19.85;15.63;;;;;;;14.90;88.44;100735.72;4896846;29;20100;-84
2021/09/22 06:27:13;;;;;;;23.55;17.67;;;;;;;14.89;87.89;100730.59;4897607;29;20071;-83
2021/09/22 06:29:43;;;;;;;31.10;20.40;;;;;;;15.11;87.09;100723.09;4903334;29;20048;-83
2021/09/22 06:32:09;;;;;;;30.63;20.27;;;;;;;15.06;86.79;100734.81;4917268;29;20072;-84
2021/09/22 06:34:55;;;;;;;26.83;21.73;;;;;;;15.39;84.82;100731.88;4916400;29;20172;-84
2021/09/22 06:37:35;;;;;;;31.83;24.73;;;;;;;15.34;84.04;100728.69;4907615;29;20045;-84
2021/09/22 06:40:09;;;;;;;31.63;27.90;;;;;;;15.59;83.54;100728.00;4911166;29;20103;-84
2021/09/22 06:42:37;;;;;;;32.70;28.20;;;;;;;15.46;84.60;100730.59;4915580;29;20052;-83
2021/09/22 06:45:04;;;;;;;41.70;32.40;;;;;;;15.76;82.39;100727.81;4913998;29;20063;-84
2021/09/22 06:47:31;;;;;;;40.10;31.40;;;;;;;15.78;82.06;100731.22;4898212;29;20452;-84
2021/09/22 06:49:58;;;;;;;42.00;31.42;;;;;;;15.41;84.13;100735.28;4909217;29;20048;-84
2021/09/22 06:52:25;;;;;;;57.15;36.42;;;;;;;15.65;82.45;100728.50;4916585;29;20056;-83
2021/09/22 06:54:51;;;;;;;44.72;33.63;;;;;;;15.93;81.60;100729.38;4911972;29;20044;-83
2021/09/22 06:57:18;;;;;;;43.45;31.80;;;;;;;15.84;81.42;100732.59;4910547;29;20048;-83
2021/09/22 06:59:45;;;;;;;39.08;31.17;;;;;;;15.59;82.90;100733.28;4920170;29;20104;-83
2021/09/22 07:02:12;;;;;;;34.45;27.33;;;;;;;16.08;80.69;100738.03;4919571;29;20048;-83
2021/09/22 07:04:39;;;;;;;42.75;26.25;;;;;;;15.78;81.30;100738.25;4918484;29;20040;-83
2021/09/22 07:07:06;;;;;;;32.08;23.60;;;;;;;16.03;80.60;100746.22;4901004;29;20045;-83
2021/09/22 07:09:33;;;;;;;25.13;21.65;;;;;;;15.98;80.86;100740.44;4900016;29;20120;-84
2021/09/22 07:12:00;;;;;;;29.42;22.38;;;;;;;15.88;80.91;100736.72;4901192;29;20052;-83
2021/09/22 07:14:26;;;;;;;24.08;21.30;;;;;;;16.21;79.73;100737.16;4901381;29;20045;-83
2021/09/22 07:16:53;;;;;;;26.67;23.83;;;;;;;16.04;79.97;100745.31;4916560;29;20055;-83
2021/09/22 07:19:20;;;;;;;31.70;21.95;;;;;;;16.29;79.08;100741.06;4920099;29;20044;-83
2021/09/22 07:21:47;;;;;;;19.60;17.50;;;;;;;16.24;79.03;100744.84;4919360;29;20045;-83
2021/09/22 07:24:14;;;;;;;24.95;19.08;;;;;;;16.36;78.73;100743.19;4919170;29;20115;-83
2021/09/22 07:26:41;;;;;;;22.52;18.73;;;;;;;16.68;77.55;100740.22;4917130;29;20092;-83
2021/09/22 07:29:08;;;;;;;23.67;20.20;;;;;;;16.57;77.67;100740.94;4910298;29;20055;-83
2021/09/22 07:31:36;;;;;;;27.63;20.88;;;;;;;16.45;78.39;100745.19;4916368;29;20052;-83
2021/09/22 07:34:03;;;;;;;21.90;19.33;;;;;;;16.64;77.34;100742.19;4919046;29;20506;-83
2021/09/22 07:36:30;;;;;;;25.95;17.13;;;;;;;17.03;74.64;100750.97;4919322;29;20044;-83
2021/09/22 07:38:57;;;;;;;25.88;18.92;;;;;;;16.78;75.07;100746.56;4918463;29;20078;-84
2021/09/22 07:41:24;;;;;;;21.42;16.52;;;;;;;17.29;73.28;100738.63;4913569;29;20051;-84
2021/09/22 07:43:51;;;;;;;26.38;20.27;;;;;;;17.07;74.10;100741.94;4919268;29;20079;-85
2021/09/22 07:46:18;;;;;;;28.60;22.25;;;;;;;16.83;75.29;100748.88;4919024;29;20052;-83
2021/09/22 07:48:45;;;;;;;22.80;16.38;;;;;;;17.02;74.52;100738.75;4919113;29;20415;-83
2021/09/22 07:51:12;;;;;;;27.05;17.42;;;;;;;17.27;73.61;100738.75;4918924;29;20048;-84
2021/09/22 07:53:39;;;;;;;20.95;15.38;;;;;;;17.37;72.93;100735.47;4917871;29;20455;-83
2021/09/22 07:56:05;;;;;;;22.58;15.68;;;;;;;17.45;72.40;100733.13;4919138;29;20455;-83
2021/09/22 07:58:32;;;;;;;22.70;12.88;;;;;;;17.79;71.05;100726.31;4905503;29;20105;-83
2021/09/22 08:00:59;;;;;;;28.13;11.32;;;;;;;17.80;69.69;100720.09;4899909;29;20052;-84
2021/09/22 08:03:28;;;;;;;19.17;9.38;;;;;;;17.75;69.62;100725.69;4900197;29;20143;-83
2021/09/22 08:05:55;;;;;;;13.68;9.63;;;;;;;18.08;68.20;100724.19;4899500;29;20079;-84
2021/09/22 08:08:22;;;;;;;17.30;8.50;;;;;;;18.44;66.63;100719.75;4908644;29;20044;-84
2021/09/22 08:10:49;;;;;;;7.88;7.03;;;;;;;18.15;66.53;100722.75;4919078;29;20099;-84
2021/09/22 08:13:16;;;;;;;8.57;6.22;;;;;;;18.91;64.29;100717.94;4913005;29;20051;-83
2021/09/22 08:15:42;;;;;;;11.95;6.50;;;;;;;18.88;62.58;100723.47;4912175;29;20048;-84
2021/09/22 08:18:09;;;;;;;5.45;4.88;;;;;;;18.89;62.66;100719.88;4918515;29;20040;-83
2021/09/22 08:20:36;;;;;;;6.28;5.15;;;;;;;19.26;60.27;100717.84;4904240;29;20056;-83
2021/09/22 08:23:03;;;;;;;6.65;4.63;;;;;;;19.56;59.17;100711.94;4914613;29;20052;-83
2021/09/22 08:25:30;;;;;;;4.38;3.70;;;;;;;19.38;58.01;100719.50;4906471;29;20096;-84
2021/09/22 08:27:57;;;;;;;8.05;3.63;;;;;;;19.84;56.98;100713.22;4899305;29;20447;-83
2021/09/22 08:30:25;;;;;;;5.85;3.58;;;;;;;19.87;56.14;100723.56;4899640;29;20499;-83
2021/09/22 08:32:52;;;;;;;6.30;3.22;;;;;;;19.80;55.77;100720.56;4899315;29;20041;-83
2021/09/22 08:35:19;;;;;;;5.95;3.10;;;;;;;19.75;54.50;100717.44;4899752;29;20448;-83
2021/09/22 08:37:46;;;;;;;3.20;2.47;;;;;;;19.90;53.47;100720.66;4904493;29;20044;-83
2021/09/22 08:40:13;;;;;;;5.60;3.45;;;;;;;19.88;53.31;100730.53;4918306;29;20058;-83
2021/09/22 08:42:40;;;;;;;5.70;3.40;;;;;;;19.92;53.72;100725.81;4912298;29;20044;-83
2021/09/22 08:45:10;;;;;;;6.10;4.25;;;;;;;20.02;53.50;100724.94;4898923;29;20499;-83
2021/09/22 08:47:41;;;;;;;4.55;3.97;;;;;;;19.86;53.72;100722.69;4917186;29;20055;-82
2021/09/22 08:50:09;;;;;;;8.32;3.40;;;;;;;20.12;53.08;100725.84;4917633;29;20068;-82
2021/09/22 08:52:35;;;;;;;3.80;2.80;;;;;;;20.58;51.42;100723.88;4903669;29;20041;-82
2021/09/22 08:55:05;;;;;;;3.65;3.35;;;;;;;20.59;51.30;100723.75;4898615;29;20270;-83
2021/09/22 08:57:32;;;;;;;5.57;3.85;;;;;;;20.40;52.71;100726.25;4899559;29;20484;-83
2021/09/22 08:59:59;;;;;;;4.68;3.72;;;;;;;20.40;52.70;100719.13;4909592;29;20048;-83
2021/09/22 09:02:37;;;;;;;6.10;3.95;;;;;;;20.13;53.08;100716.09;4916796;29;20036;-82
2021/09/22 09:05:11;;;;;;;5.57;3.63;;;;;;;20.26;53.34;100714.13;4899085;29;20059;-84
2021/09/22 09:07:52;;;;;;;7.75;3.35;;;;;;;20.48;51.54;100712.38;4898861;29;20048;-82
2021/09/22 09:10:23;;;;;;;4.50;3.75;;;;;;;20.88;50.88;100704.53;4897460;29;20048;-83
2021/09/22 09:13:09;;;;;;;5.93;3.65;;;;;;;21.37;49.35;100706.44;4898741;29;20050;-83
2021/09/22 09:15:46;;;;;;;7.22;3.45;;;;;;;21.80;46.65;100699.13;4913736;29;20064;-82
2021/09/22 09:18:19;;;;;;;6.07;3.40;;;;;;;21.75;46.22;100699.53;4916398;29;20104;-83
2021/09/22 09:20:48;;;;;;;6.70;3.75;;;;;;;21.86;46.37;100695.91;4917108;29;20495;-83
2021/09/22 09:23:18;;;;;;;4.97;2.85;;;;;;;22.85;42.41;100691.19;4917424;29;20103;-83
2021/09/22 09:26:02;;;;;;;7.68;3.92;;;;;;;23.41;41.88;100684.97;4917420;29;20044;-83
2021/09/22 09:28:38;;;;;;;9.50;4.15;;;;;;;22.56;44.02;100689.47;4915851;29;20122;-83
2021/09/22 09:31:08;;;;;;;2.97;2.70;;;;;;;23.64;41.92;100682.75;4917466;29;20048;-83
2021/09/22 09:33:43;;;;;;;3.78;2.75;;;;;;;23.96;40.79;100687.53;4917214;29;20103;-83
2021/09/22 09:36:26;;;;;;;4.43;3.38;;;;;;;22.59;42.28;100689.19;4911779;29;20182;-83
2021/09/22 09:39:02;;;;;;;5.78;3.25;;;;;;;22.69;43.09;100682.03;4907841;29;20040;-83
2021/09/22 09:41:35;;;;;;;7.25;3.85;;;;;;;22.17;43.76;100686.03;4917379;29;20150;-83
2021/09/22 09:44:05;;;;;;;5.30;3.20;;;;;;;22.07;44.28;100688.66;4916906;29;20487;-83
2021/09/22 09:46:32;;;;;;;6.20;2.83;;;;;;;22.35;43.36;100678.19;4917232;29;20051;-84
2021/09/22 09:48:59;;;;;;;6.53;3.15;;;;;;;22.67;41.21;100669.84;4909767;29;20052;-84
2021/09/22 09:51:31;;;;;;;3.30;2.95;;;;;;;23.03;41.18;100670.06;4912499;29;20492;-83
2021/09/22 09:54:25;;;;;;;10.82;3.05;;;;;;;23.32;41.93;100664.56;4909979;29;20111;-83
2021/09/22 09:57:07;;;;;;;7.37;3.63;;;;;;;23.70;40.73;100660.84;4897695;29;20052;-81
2021/09/22 09:59:42;;;;;;;7.65;3.08;;;;;;;22.94;40.97;100653.97;4898586;29;20053;-84
2021/09/22 10:02:23;;;;;;;4.50;3.35;;;;;;;22.29;41.57;100653.03;4898562;29;20052;-84
2021/09/22 10:04:51;;;;;;;4.07;3.35;;;;;;;22.26;41.97;100650.66;4898472;29;20404;-83
2021/09/22 10:07:19;;;;;;;4.63;3.88;;;;;;;22.09;43.06;100646.03;4896957;29;20104;-83
2021/09/22 10:09:46;;;;;;;6.38;3.70;;;;;;;22.39;42.60;100651.19;4899116;29;20392;-83
2021/09/22 10:12:15;;;;;;;7.22;3.65;;;;;;;22.66;42.19;100649.59;4918124;29;20060;-84
2021/09/22 10:14:45;;;;;;;4.90;3.10;;;;;;;23.25;41.96;100645.72;4917433;29;20083;-83
2021/09/22 10:17:15;;;;;;;9.43;3.35;;;;;;;23.52;40.57;100640.34;4916199;29;20113;-83
2021/09/22 10:19:45;;;;;;;7.43;3.30;;;;;;;22.75;41.41;100646.91;4916646;29;20491;-83
2021/09/22 10:22:13;;;;;;;4.97;3.00;;;;;;;23.17;41.51;100632.31;4904916;29;20053;-85
2021/09/22 10:24:44;;;;;;;5.63;3.00;;;;;;;23.69;39.92;100636.06;4917714;29;20071;-85
2021/09/22 10:27:15;;;;;;;5.88;3.17;;;;;;;24.43;39.52;100634.00;4918093;29;20048;-85
2021/09/22 10:29:58;;;;;;;4.38;3.08;;;;;;;23.20;40.69;100621.38;4915853;29;20044;-83
2021/09/22 10:32:41;;;;;;;5.32;4.43;;;;;;;23.72;39.45;100624.28;4899178;29;20563;-84
2021/09/22 10:35:26;;;;;;;8.18;4.90;;;;;;;24.78;37.52;100611.72;4918667;29;20391;-84
2021/09/22 10:38:19;;;;;;;6.38;3.35;;;;;;;25.22;36.58;100616.91;4913776;29;20060;-82
2021/09/22 10:40:49;;;;;;;3.92;2.60;;;;;;;23.95;38.58;100612.16;4884115;29;20052;-84
2021/09/22 10:43:15;;;;;;;4.78;3.22;;;;;;;23.13;39.63;100615.00;4901276;29;20049;-81
2021/09/22 10:45:44;;;;;;;3.22;2.50;;;;;;;23.13;38.96;100612.34;4900068;29;20052;-83
2021/09/22 10:48:23;;;;;;;2.58;2.38;;;;;;;24.24;37.82;100608.41;4901804;29;20063;-83
2021/09/22 10:50:52;;;;;;;5.15;2.70;;;;;;;24.72;36.74;100609.69;4901484;29;20049;-83
2021/09/22 10:53:34;;;;;;;4.65;2.83;;;;;;;24.17;38.53;100602.84;4900954;29;20045;-82
2021/09/22 10:56:13;;;;;;;8.60;3.72;;;;;;;24.05;37.99;100599.59;4900373;29;20048;-83
2021/09/22 10:58:41;;;;;;;2.67;2.47;;;;;;;24.47;37.45;100598.06;4900848;29;20044;-83
2021/09/22 11:01:09;;;;;;;4.60;2.85;;;;;;;24.00;37.94;100596.56;4901571;29;20406;-82
2021/09/22 11:03:45;;;;;;;4.53;3.15;;;;;;;23.78;38.64;100607.69;4901173;29;20411;-83
2021/09/22 11:06:45;;;;;;;2.97;2.78;;;;;;;23.73;39.27;100596.69;4909817;29;20052;-84
2021/09/22 11:09:32;;;;;;;4.05;3.03;;;;;;;24.32;38.04;100581.78;4917299;29;20532;-82
2021/09/22 11:11:59;;;;;;;3.78;2.90;;;;;;;23.75;38.93;100586.69;4920240;29;20040;-83
2021/09/22 11:14:46;;;;;;;5.18;3.42;;;;;;;22.68;41.03;100590.00;4919534;29;20119;-83
2021/09/22 11:17:23;;;;;;;3.83;2.92;;;;;;;22.56;40.99;100593.00;4920350;29;20052;-83
2021/09/22 11:19:55;;;;;;;4.53;3.60;;;;;;;22.54;41.05;100587.81;4918938;29;20490;-82
2021/09/22 11:22:28;;;;;;;6.57;3.65;;;;;;;22.25;41.46;100579.94;4917515;29;20071;-83
2021/09/22 11:25:05;;;;;;;3.67;3.30;;;;;;;22.28;41.56;100569.03;4901632;29;20052;-82
2021/09/22 11:27:33;;;;;;;6.00;5.32;;;;;;;22.69;40.96;100572.22;4902010;29;20145;-82
2021/09/22 11:30:03;;;;;;;9.05;3.13;;;;;;;23.12;41.39;100558.31;4906175;29;20044;-82
2021/09/22 11:32:42;;;;;;;6.97;4.20;;;;;;;23.15;41.50;100549.19;4890768;29;20053;-83
2021/09/22 11:35:11;;;;;;;6.40;4.85;;;;;;;23.20;41.53;100546.91;4883870;29;20477;-81
2021/09/22 11:37:39;;;;;;;6.50;4.25;;;;;;;22.54;42.38;100552.47;4883526;29;20041;-83
2021/09/22 11:40:11;;;;;;;5.53;4.82;;;;;;;22.86;42.01;100552.84;4883279;29;20051;-82
2021/09/22 11:42:40;;;;;;;8.75;4.70;;;;;;;21.97;44.11;100547.13;4884096;29;20510;-84
2021/09/22 11:45:08;;;;;;;6.88;4.95;;;;;;;22.22;43.81;100543.06;4889714;29;20075;-84
2021/09/22 11:47:44;;;;;;;4.97;4.40;;;;;;;22.52;43.01;100551.75;4888623;29;20061;-84